createdAt,value
2022-08-21T00:02:25.481Z,99.90
2022-08-21T00:04:57.793Z,99.90
2022-08-21T00:07:26.768Z,99.90
2022-08-21T00:09:56.111Z,99.90
2022-08-21T00:12:25.337Z,99.90
2022-08-21T00:14:58.157Z,99.90
2022-08-21T00:17:28.488Z,99.90
2022-08-21T00:19:57.136Z,99.90
2022-08-21T00:22:25.886Z,99.90
2022-08-21T00:24:54.629Z,99.90
2022-08-21T00:27:23.348Z,99.90
2022-08-21T00:29:51.969Z,99.90
2022-08-21T00:32:23.908Z,99.90
2022-08-21T00:34:54.587Z,99.90
2022-08-21T00:37:23.559Z,99.90
2022-08-21T00:39:52.407Z,99.90
2022-08-21T00:42:21.967Z,99.90
2022-08-21T00:44:52.148Z,99.90
2022-08-21T00:47:22.067Z,99.90
2022-08-21T00:49:50.739Z,99.90
2022-08-21T00:52:26.059Z,99.90
2022-08-21T00:54:57.856Z,99.90
2022-08-21T00:57:30.637Z,99.90
2022-08-21T01:00:02.320Z,99.90
2022-08-21T01:02:31.063Z,99.90
2022-08-21T01:04:59.967Z,99.90
2022-08-21T01:07:30.057Z,99.90
2022-08-21T01:09:58.760Z,99.90
2022-08-21T01:12:28.169Z,99.90
2022-08-21T01:14:56.911Z,99.90
2022-08-21T01:17:25.778Z,99.90
2022-08-21T01:19:55.319Z,99.90
2022-08-21T01:22:25.358Z,99.90
2022-08-21T01:24:54.061Z,99.90
2022-08-21T01:27:22.745Z,99.90
2022-08-21T01:29:57.749Z,99.90
2022-08-21T01:32:27.717Z,99.90
2022-08-21T01:34:56.437Z,99.90
2022-08-21T01:37:26.521Z,99.90
2022-08-21T01:39:55.725Z,99.90
2022-08-21T01:42:24.508Z,99.90
2022-08-21T01:44:56.110Z,99.90
2022-08-21T01:47:25.160Z,99.90
2022-08-21T01:49:54.059Z,99.90
2022-08-21T01:52:22.919Z,99.90
2022-08-21T01:54:55.115Z,99.90
2022-08-21T01:57:26.228Z,99.90
2022-08-21T01:59:55.307Z,99.90
2022-08-21T02:02:24.028Z,99.90
2022-08-21T02:04:53.257Z,99.90
2022-08-21T02:07:22.339Z,99.90
2022-08-21T02:09:52.427Z,99.90
2022-08-21T02:12:22.458Z,99.90
2022-08-21T02:14:51.191Z,99.90
2022-08-21T02:17:20.080Z,99.90
2022-08-21T02:19:48.710Z,99.90
2022-08-21T02:22:18.685Z,99.90
2022-08-21T02:24:54.692Z,99.90
2022-08-21T02:27:27.439Z,99.90
2022-08-21T02:29:57.518Z,99.90
2022-08-21T02:32:26.926Z,99.90
2022-08-21T02:34:55.971Z,99.90
2022-08-21T02:37:25.048Z,99.90
2022-08-21T02:39:53.717Z,99.90
2022-08-21T02:42:22.699Z,99.90
2022-08-21T02:44:52.707Z,99.90
2022-08-21T02:47:21.369Z,99.90
2022-08-21T02:49:50.013Z,99.90
2022-08-21T02:52:19.662Z,99.90
2022-08-21T02:54:48.259Z,99.90
2022-08-21T02:57:16.879Z,99.90
2022-08-21T02:59:45.531Z,99.90
2022-08-21T03:02:16.412Z,99.90
2022-08-21T03:04:47.292Z,99.90
2022-08-21T03:07:17.771Z,99.90
2022-08-21T03:09:55.815Z,99.90
2022-08-21T03:12:25.155Z,99.90
2022-08-21T03:15:00.493Z,99.90
2022-08-21T03:17:31.078Z,99.90
2022-08-21T03:20:01.231Z,99.90
2022-08-21T03:22:30.891Z,99.90
2022-08-21T03:25:00.491Z,99.90
2022-08-21T03:27:30.192Z,99.90
2022-08-21T03:29:59.912Z,99.90
2022-08-21T03:32:30.343Z,99.90
2022-08-21T03:34:59.422Z,99.90
2022-08-21T03:37:28.358Z,99.90
2022-08-21T03:39:57.546Z,99.90
2022-08-21T03:42:26.781Z,99.90
2022-08-21T03:44:55.631Z,99.90
2022-08-21T03:47:24.838Z,99.90
2022-08-21T03:49:55.423Z,99.90
2022-08-21T03:52:24.593Z,99.90
2022-08-21T03:54:53.552Z,99.90
2022-08-21T03:57:22.762Z,99.90
2022-08-21T03:59:51.710Z,99.90
2022-08-21T04:02:23.141Z,99.90
2022-08-21T04:04:52.152Z,99.90
2022-08-21T04:07:22.400Z,99.90
2022-08-21T04:09:51.142Z,99.90
2022-08-21T04:12:20.872Z,99.90
2022-08-21T04:14:49.722Z,99.90
2022-08-21T04:17:18.519Z,99.90
2022-08-21T04:19:50.522Z,99.90
2022-08-21T04:22:23.943Z,99.90
2022-08-21T04:24:52.891Z,99.90
2022-08-21T04:27:21.800Z,99.90
2022-08-21T04:29:50.638Z,99.90
2022-08-21T04:32:25.689Z,99.90
2022-08-21T04:35:05.373Z,99.90
2022-08-21T04:37:35.811Z,99.90
2022-08-21T04:40:13.249Z,99.90
2022-08-21T04:42:46.741Z,99.90
2022-08-21T04:45:21.824Z,99.90
2022-08-21T04:47:53.481Z,99.90
2022-08-21T04:50:25.150Z,99.90
2022-08-21T04:52:56.500Z,99.90
2022-08-21T04:55:26.860Z,99.90
2022-08-21T04:57:55.970Z,99.90
2022-08-21T05:00:26.971Z,99.90
2022-08-21T05:03:00.531Z,99.90
2022-08-21T05:05:31.430Z,99.90
2022-08-21T05:08:05.070Z,99.90
2022-08-21T05:10:34.891Z,99.90
2022-08-21T05:13:04.510Z,99.90
2022-08-21T05:15:33.490Z,99.90
2022-08-21T05:18:02.372Z,99.90
2022-08-21T05:20:31.191Z,99.90
2022-08-21T05:23:01.453Z,99.90
2022-08-21T05:25:30.753Z,99.90
2022-08-21T05:28:00.777Z,99.90
2022-08-21T05:30:29.991Z,99.90
2022-08-21T05:33:00.637Z,99.90
2022-08-21T05:35:30.841Z,99.90
2022-08-21T05:38:02.273Z,99.90
2022-08-21T05:40:31.506Z,99.90
2022-08-21T05:43:01.137Z,99.90
2022-08-21T05:45:43.302Z,99.90
2022-08-21T05:48:14.841Z,99.90
2022-08-21T05:50:44.073Z,99.90
2022-08-21T05:53:15.149Z,99.90
2022-08-21T05:55:46.485Z,99.90
2022-08-21T05:58:16.943Z,99.90
2022-08-21T06:00:46.922Z,99.90
2022-08-21T06:03:16.720Z,99.90
2022-08-21T06:05:46.754Z,99.90
2022-08-21T06:08:18.811Z,99.90
2022-08-21T06:10:48.341Z,99.90
2022-08-21T06:13:18.931Z,99.90
2022-08-21T06:15:48.218Z,99.90
2022-08-21T06:18:18.074Z,99.90
2022-08-21T06:20:47.440Z,99.90
2022-08-21T06:23:17.673Z,99.90
2022-08-21T06:25:47.484Z,99.90
2022-08-21T06:28:17.229Z,99.90
2022-08-21T06:30:46.192Z,99.90
2022-08-21T06:33:15.455Z,99.90
2022-08-21T06:35:47.119Z,99.90
2022-08-21T06:38:18.561Z,99.90
2022-08-21T06:40:48.172Z,99.90
2022-08-21T06:43:19.112Z,99.90
2022-08-21T06:45:48.142Z,99.90
2022-08-21T06:48:19.519Z,99.90
2022-08-21T06:50:49.092Z,99.90
2022-08-21T06:53:21.356Z,99.90
2022-08-21T06:55:50.491Z,99.90
2022-08-21T06:58:22.491Z,99.90
2022-08-21T07:00:58.705Z,99.90
2022-08-21T07:03:32.357Z,99.90
2022-08-21T07:06:01.331Z,99.90
2022-08-21T07:08:31.935Z,99.90
2022-08-21T07:11:03.202Z,99.90
2022-08-21T07:13:32.212Z,99.90
2022-08-21T07:16:04.135Z,99.90
2022-08-21T07:18:33.551Z,99.90
2022-08-21T07:21:04.622Z,99.90
2022-08-21T07:23:37.622Z,99.90
2022-08-21T07:26:06.481Z,99.90
2022-08-21T07:28:35.780Z,99.90
2022-08-21T07:31:05.644Z,99.90
2022-08-21T07:33:36.172Z,99.90
2022-08-21T07:36:05.800Z,99.90
2022-08-21T07:38:36.120Z,99.90
2022-08-21T07:41:09.290Z,99.90
2022-08-21T07:43:45.829Z,99.90
2022-08-21T07:46:19.157Z,99.90
2022-08-21T07:48:49.113Z,99.90
2022-08-21T07:51:19.691Z,99.90
2022-08-21T07:53:53.460Z,99.90
2022-08-21T07:56:24.490Z,99.90
2022-08-21T07:58:53.594Z,99.90
2022-08-21T08:01:23.662Z,99.90
2022-08-21T08:03:53.301Z,99.90
2022-08-21T08:06:23.140Z,99.90
2022-08-21T08:08:53.872Z,99.90
2022-08-21T08:11:23.961Z,99.90
2022-08-21T08:13:54.352Z,99.90
2022-08-21T08:16:23.629Z,99.90
2022-08-21T08:18:53.013Z,99.90
2022-08-21T08:21:22.422Z,98.30
2022-08-21T08:23:53.561Z,91.00
2022-08-21T08:26:22.752Z,77.00
2022-08-21T08:28:51.911Z,82.00
2022-08-21T08:31:20.801Z,68.40
2022-08-21T08:33:49.923Z,55.10
2022-08-21T08:36:21.073Z,55.90
2022-08-21T08:38:50.501Z,49.10
2022-08-21T08:41:24.022Z,49.60
2022-08-21T08:44:04.311Z,50.60
2022-08-21T08:46:38.427Z,46.40
2022-08-21T08:49:15.432Z,43.20
2022-08-21T08:51:53.020Z,45.50
2022-08-21T08:54:32.631Z,42.30
2022-08-21T08:57:04.683Z,42.00
2022-08-21T08:59:41.011Z,41.20
2022-08-21T09:02:15.671Z,36.60
2022-08-21T09:04:46.300Z,36.80
2022-08-21T09:07:34.771Z,34.90
2022-08-21T09:10:17.191Z,34.30
2022-08-21T09:12:54.359Z,33.60
2022-08-21T09:15:31.489Z,34.50
2022-08-21T09:18:32.270Z,32.60
2022-08-21T09:21:12.280Z,32.70
2022-08-21T09:23:52.575Z,33.70
2022-08-21T09:26:24.091Z,30.70
2022-08-21T09:28:57.220Z,34.20
2022-08-21T09:31:28.642Z,35.80
2022-08-21T09:34:01.633Z,30.80
2022-08-21T09:36:39.282Z,28.80
2022-08-21T09:39:09.271Z,30.30
2022-08-21T09:41:39.332Z,28.60
2022-08-21T09:44:10.913Z,28.80
2022-08-21T09:46:40.242Z,29.90
2022-08-21T09:49:15.020Z,26.30
2022-08-21T09:51:54.291Z,32.20
2022-08-21T09:54:28.751Z,28.60
2022-08-21T09:57:18.205Z,30.00
2022-08-21T09:59:49.812Z,29.70
2022-08-21T10:02:28.277Z,30.60
2022-08-21T10:05:00.392Z,28.90
2022-08-21T10:07:30.035Z,26.30
2022-08-21T10:10:06.020Z,26.30
2022-08-21T10:12:47.559Z,27.40
2022-08-21T10:15:24.422Z,29.60
2022-08-21T10:18:04.091Z,25.70
2022-08-21T10:20:42.659Z,28.40
2022-08-21T10:23:26.809Z,29.20
2022-08-21T10:26:14.144Z,26.90
2022-08-21T10:28:50.992Z,25.00
2022-08-21T10:31:27.384Z,27.60
2022-08-21T10:34:09.760Z,30.40
2022-08-21T10:36:46.860Z,27.00
2022-08-21T10:39:35.170Z,24.90
2022-08-21T10:42:28.578Z,29.30
2022-08-21T10:45:16.611Z,25.90
2022-08-21T10:47:57.339Z,26.00
2022-08-21T10:50:34.400Z,26.20
2022-08-21T10:53:15.740Z,26.30
2022-08-21T10:55:50.694Z,26.10
2022-08-21T10:58:26.548Z,25.10
2022-08-21T11:01:01.127Z,27.50
2022-08-21T11:03:37.000Z,26.70
2022-08-21T11:06:13.290Z,28.00
2022-08-21T11:08:44.942Z,25.80
2022-08-21T11:11:22.582Z,25.10
2022-08-21T11:13:56.561Z,26.90
2022-08-21T11:16:32.281Z,30.00
2022-08-21T11:19:08.572Z,26.20
2022-08-21T11:21:41.961Z,25.30
2022-08-21T11:24:29.832Z,25.20
2022-08-21T11:27:06.135Z,29.00
2022-08-21T11:29:38.103Z,26.10
2022-08-21T11:32:24.585Z,27.10
2022-08-21T11:35:05.511Z,25.50
2022-08-21T11:37:56.460Z,23.80
2022-08-21T11:40:43.844Z,22.50
2022-08-21T11:43:21.481Z,24.10
2022-08-21T11:45:54.322Z,23.90
2022-08-21T11:48:37.753Z,27.50
2022-08-21T11:51:13.721Z,25.70
2022-08-21T11:53:54.402Z,23.80
2022-08-21T11:56:28.713Z,24.40
2022-08-21T11:59:02.610Z,27.00
2022-08-21T12:01:37.739Z,25.60
2022-08-21T12:04:19.990Z,25.50
2022-08-21T12:06:50.872Z,25.50
2022-08-21T12:09:35.760Z,26.00
2022-08-21T12:12:07.957Z,26.70
2022-08-21T12:14:42.501Z,24.70
2022-08-21T12:17:21.522Z,25.30
2022-08-21T12:20:01.750Z,25.70
2022-08-21T12:22:42.593Z,24.70
2022-08-21T12:25:21.552Z,26.90
2022-08-21T12:27:54.540Z,22.20
2022-08-21T12:30:35.458Z,25.30
2022-08-21T12:33:06.872Z,26.50
2022-08-21T12:35:41.461Z,24.30
2022-08-21T12:38:19.304Z,28.60
2022-08-21T12:40:54.920Z,27.60
2022-08-21T12:43:30.329Z,24.80
2022-08-21T12:46:01.859Z,24.90
2022-08-21T12:48:36.112Z,27.40
2022-08-21T12:51:12.771Z,26.10
2022-08-21T12:53:50.230Z,27.10
2022-08-21T12:56:23.021Z,25.60
2022-08-21T12:58:53.921Z,26.70
2022-08-21T13:01:26.784Z,26.40
2022-08-21T13:04:04.370Z,27.00
2022-08-21T13:06:40.782Z,25.80
2022-08-21T13:09:15.317Z,25.90
2022-08-21T13:11:47.236Z,27.30
2022-08-21T13:14:27.790Z,28.40
2022-08-21T13:16:57.783Z,27.80
2022-08-21T13:19:30.730Z,29.20
2022-08-21T13:22:00.202Z,28.40
2022-08-21T13:24:42.282Z,28.70
2022-08-21T13:27:25.527Z,31.20
2022-08-21T13:30:08.919Z,30.00
2022-08-21T13:32:41.631Z,30.00
2022-08-21T13:35:14.632Z,30.00
2022-08-21T13:37:45.192Z,28.90
2022-08-21T13:40:20.806Z,27.70
2022-08-21T13:42:51.126Z,29.40
2022-08-21T13:45:26.580Z,30.40
2022-08-21T13:47:56.964Z,31.20
2022-08-21T13:50:28.291Z,29.40
2022-08-21T13:53:00.975Z,28.50
2022-08-21T13:55:41.090Z,31.20
2022-08-21T13:58:12.020Z,33.00
2022-08-21T14:00:48.392Z,32.10
2022-08-21T14:03:30.297Z,34.50
2022-08-21T14:06:00.205Z,37.10
2022-08-21T14:08:36.023Z,39.20
2022-08-21T14:11:09.272Z,41.30
2022-08-21T14:13:42.395Z,41.10
2022-08-21T14:16:21.068Z,44.80
2022-08-21T14:18:53.572Z,44.10
2022-08-21T14:21:35.343Z,47.40
2022-08-21T14:24:11.860Z,46.80
2022-08-21T14:26:51.500Z,50.40
2022-08-21T14:29:23.682Z,51.80
2022-08-21T14:31:55.043Z,55.20
2022-08-21T14:34:25.000Z,54.70
2022-08-21T14:36:55.620Z,57.20
2022-08-21T14:39:24.980Z,56.10
2022-08-21T14:41:55.878Z,57.00
2022-08-21T14:44:25.220Z,59.00
2022-08-21T14:46:56.367Z,60.60
2022-08-21T14:49:31.244Z,53.90
2022-08-21T14:52:00.800Z,55.70
2022-08-21T14:54:32.909Z,51.10
2022-08-21T14:57:07.491Z,50.10
2022-08-21T14:59:37.442Z,52.00
2022-08-21T15:02:07.959Z,50.80
2022-08-21T15:04:37.961Z,53.10
2022-08-21T15:07:07.222Z,56.50
2022-08-21T15:09:36.300Z,55.70
2022-08-21T15:12:08.622Z,54.70
2022-08-21T15:14:41.453Z,54.50
2022-08-21T15:17:12.380Z,57.10
2022-08-21T15:19:42.481Z,62.10
2022-08-21T15:22:15.565Z,59.10
2022-08-21T15:24:48.204Z,59.50
2022-08-21T15:27:21.439Z,60.30
2022-08-21T15:29:50.490Z,60.10
2022-08-21T15:32:24.140Z,58.80
2022-08-21T15:34:53.921Z,58.10
2022-08-21T15:37:23.871Z,60.20
2022-08-21T15:39:54.438Z,58.80
2022-08-21T15:42:27.972Z,61.10
2022-08-21T15:44:58.421Z,60.40
2022-08-21T15:47:32.140Z,61.30
2022-08-21T15:50:01.680Z,63.80
2022-08-21T15:52:30.752Z,63.70
2022-08-21T15:55:00.188Z,62.30
2022-08-21T15:57:31.090Z,65.20
2022-08-21T16:00:11.462Z,65.40
2022-08-21T16:02:41.841Z,64.50
2022-08-21T16:05:13.270Z,65.40
2022-08-21T16:07:42.361Z,66.70
2022-08-21T16:10:11.620Z,72.00
2022-08-21T16:12:46.042Z,72.80
2022-08-21T16:15:20.204Z,75.50
2022-08-21T16:17:51.481Z,72.90
2022-08-21T16:20:23.604Z,85.70
2022-08-21T16:22:53.880Z,84.00
2022-08-21T16:25:23.664Z,75.50
2022-08-21T16:27:59.546Z,73.70
2022-08-21T16:30:31.206Z,74.70
2022-08-21T16:33:02.720Z,78.60
2022-08-21T16:35:32.000Z,78.80
2022-08-21T16:38:01.289Z,84.30
2022-08-21T16:40:30.671Z,85.00
2022-08-21T16:43:01.243Z,84.40
2022-08-21T16:45:33.194Z,83.40
2022-08-21T16:48:04.758Z,81.70
2022-08-21T16:50:34.228Z,83.10
2022-08-21T16:53:03.468Z,78.40
2022-08-21T16:55:33.538Z,83.60
2022-08-21T16:58:23.400Z,81.80
2022-08-21T17:00:52.751Z,77.80
2022-08-21T17:03:27.782Z,82.90
2022-08-21T17:05:57.341Z,85.10
2022-08-21T17:08:26.852Z,86.30
2022-08-21T17:10:56.702Z,91.00
2022-08-21T17:13:28.144Z,92.90
2022-08-21T17:15:57.339Z,90.40
2022-08-21T17:18:27.300Z,89.50
2022-08-21T17:20:56.961Z,92.30
2022-08-21T17:23:26.289Z,93.20
2022-08-21T17:25:57.513Z,94.50
2022-08-21T17:28:31.727Z,95.60
2022-08-21T17:31:02.676Z,97.20
2022-08-21T17:33:50.537Z,97.20
2022-08-21T17:36:21.139Z,99.90
2022-08-21T17:38:50.955Z,99.90
2022-08-21T17:41:21.541Z,99.90
2022-08-21T17:43:53.241Z,99.80
2022-08-21T17:46:24.281Z,99.90
2022-08-21T17:48:53.788Z,98.80
2022-08-21T17:51:22.806Z,97.30
2022-08-21T17:53:52.021Z,99.10
2022-08-21T17:56:22.499Z,98.40
2022-08-21T17:58:54.433Z,99.90
2022-08-21T18:01:24.213Z,99.50
2022-08-21T18:03:53.493Z,99.90
2022-08-21T18:06:22.661Z,99.90
2022-08-21T18:08:52.729Z,99.90
2022-08-21T18:11:25.420Z,99.90
2022-08-21T18:14:06.599Z,99.90
2022-08-21T18:16:38.154Z,99.90
2022-08-21T18:19:10.093Z,99.90
2022-08-21T18:21:39.220Z,99.90
2022-08-21T18:24:08.301Z,99.90
2022-08-21T18:26:40.799Z,99.90
2022-08-21T18:29:13.981Z,99.90
2022-08-21T18:31:43.921Z,99.90
2022-08-21T18:34:22.041Z,99.90
2022-08-21T18:36:51.449Z,99.90
2022-08-21T18:39:35.951Z,99.90
2022-08-21T18:42:09.302Z,99.90
2022-08-21T18:44:40.677Z,99.90
2022-08-21T18:47:14.561Z,99.90
2022-08-21T18:49:43.646Z,99.90
2022-08-21T18:52:20.187Z,99.90
2022-08-21T18:54:49.767Z,99.90
2022-08-21T18:57:20.953Z,99.90
2022-08-21T18:59:51.523Z,99.90
2022-08-21T19:02:21.329Z,99.90
2022-08-21T19:04:50.248Z,99.90
2022-08-21T19:07:20.722Z,99.90
2022-08-21T19:10:21.083Z,99.90
2022-08-21T19:12:39.621Z,99.90
2022-08-21T19:15:13.121Z,99.90
2022-08-21T19:17:42.901Z,99.90
2022-08-21T19:20:21.410Z,99.90
2022-08-21T19:22:56.478Z,99.90
2022-08-21T19:25:32.945Z,99.90
2022-08-21T19:28:11.156Z,99.90
2022-08-21T19:33:37.680Z,99.90
2022-08-21T19:36:10.122Z,99.90
2022-08-21T19:38:39.961Z,99.90
2022-08-21T19:41:11.702Z,99.90
2022-08-21T19:43:44.521Z,99.90
2022-08-21T19:46:21.082Z,99.90
2022-08-21T19:48:50.081Z,99.90
2022-08-21T19:51:18.941Z,99.90
2022-08-21T19:53:49.060Z,99.90
2022-08-21T19:56:23.853Z,99.90
2022-08-21T19:58:53.304Z,99.90
2022-08-21T20:01:25.523Z,99.90
2022-08-21T20:03:57.148Z,99.90
2022-08-21T20:06:27.760Z,99.90
2022-08-21T20:08:57.362Z,99.90
2022-08-21T20:11:31.785Z,99.90
2022-08-21T20:14:01.961Z,99.90
2022-08-21T20:16:32.533Z,99.90
2022-08-21T20:19:04.700Z,99.90
2022-08-21T20:21:44.366Z,99.90
2022-08-21T20:27:06.094Z,99.90
2022-08-21T20:29:39.102Z,99.90
2022-08-21T20:32:11.886Z,99.90
2022-08-21T20:34:41.304Z,99.90
2022-08-21T20:37:14.289Z,99.90
2022-08-21T20:40:03.758Z,99.90
2022-08-21T20:42:32.823Z,99.90
2022-08-21T20:48:05.431Z,99.90
2022-08-21T20:50:38.681Z,99.90
2022-08-21T20:53:14.864Z,99.90
2022-08-21T20:55:48.880Z,99.90
2022-08-21T20:58:34.122Z,99.90
2022-08-21T21:01:07.761Z,99.90
2022-08-21T21:03:44.317Z,99.90
2022-08-21T21:06:19.511Z,99.90
2022-08-21T21:08:52.043Z,99.90
2022-08-21T21:11:31.928Z,99.90
2022-08-21T21:14:19.045Z,99.90
2022-08-21T21:16:54.821Z,99.90
2022-08-21T21:19:37.236Z,99.90
2022-08-21T21:22:09.862Z,99.90
2022-08-21T21:24:42.581Z,99.90
2022-08-21T21:27:18.504Z,99.90
2022-08-21T21:29:53.460Z,99.90
2022-08-21T21:32:23.540Z,99.90
2022-08-21T21:34:55.522Z,99.90
2022-08-21T21:37:31.902Z,99.90
2022-08-21T21:40:10.657Z,99.90
2022-08-21T21:42:50.763Z,99.90
2022-08-21T21:45:28.131Z,99.90
2022-08-21T21:48:06.016Z,99.90
2022-08-21T21:50:53.526Z,99.90
2022-08-21T21:53:41.202Z,99.90
2022-08-21T21:56:20.363Z,99.90
2022-08-21T21:59:17.565Z,99.90
2022-08-21T22:01:57.581Z,99.90
2022-08-21T22:04:37.662Z,99.90
2022-08-21T22:10:18.595Z,99.90
2022-08-21T22:13:10.520Z,99.90
2022-08-21T22:15:41.319Z,99.90
2022-08-21T22:18:12.825Z,99.90
2022-08-21T22:21:03.067Z,99.90
2022-08-21T22:23:39.062Z,99.90
2022-08-21T22:26:11.498Z,99.90
2022-08-21T22:28:44.090Z,99.90
2022-08-21T22:31:19.341Z,99.90
2022-08-21T22:34:18.077Z,99.90
2022-08-21T22:37:02.765Z,99.90
2022-08-21T22:39:38.824Z,99.90
2022-08-21T22:42:11.368Z,99.90
2022-08-21T22:44:51.785Z,99.90
2022-08-21T22:47:26.941Z,99.90
2022-08-21T22:50:00.897Z,99.90
2022-08-21T22:52:36.744Z,99.90
2022-08-21T22:55:26.243Z,99.90
2022-08-21T22:58:11.703Z,99.90
2022-08-21T23:00:51.684Z,99.90
2022-08-21T23:03:26.799Z,99.90
2022-08-21T23:06:01.650Z,99.90
2022-08-21T23:11:30.725Z,99.90
2022-08-21T23:14:00.982Z,99.90
2022-08-21T23:16:43.139Z,99.90
2022-08-21T23:19:25.330Z,99.90
2022-08-21T23:22:00.502Z,99.90
2022-08-21T23:24:52.340Z,99.90
2022-08-21T23:27:41.101Z,99.90
2022-08-21T23:30:12.581Z,99.90
2022-08-21T23:33:24.929Z,99.90
2022-08-21T23:36:18.882Z,99.90
2022-08-21T23:39:02.600Z,99.90
2022-08-21T23:41:43.962Z,99.90
2022-08-21T23:44:27.482Z,99.90
2022-08-21T23:47:06.450Z,99.90
2022-08-21T23:49:48.261Z,99.90
2022-08-21T23:52:27.100Z,99.90
2022-08-21T23:55:16.757Z,99.90
2022-08-21T23:57:59.430Z,99.90
